sensor_id;sensor_type;location;lat;lon;timestamp;P1;durP1;ratioP1;P2;durP2;ratioP2
21798;SDS011;24973;47.178;15.316;2023-04-29T00:00:14;8.20;;;7.10;;
21798;SDS011;24973;47.178;15.316;2023-04-29T00:03:03;10.40;;;6.90;;
21798;SDS011;24973;47.178;15.316;2023-04-29T00:05:52;9.57;;;7.30;;
21798;SDS011;24973;47.178;15.316;2023-04-29T00:08:41;8.20;;;7.40;;
21798;SDS011;24973;47.178;15.316;2023-04-29T00:11:29;9.90;;;7.13;;
21798;SDS011;24973;47.178;15.316;2023-04-29T00:14:18;8.30;;;7.10;;
21798;SDS011;24973;47.178;15.316;2023-04-29T00:17:08;13.33;;;7.47;;
21798;SDS011;24973;47.178;15.316;2023-04-29T00:19:57;11.30;;;7.00;;
21798;SDS011;24973;47.178;15.316;2023-04-29T00:22:46;10.63;;;6.60;;
21798;SDS011;24973;47.178;15.316;2023-04-29T00:25:35;11.17;;;6.43;;
21798;SDS011;24973;47.178;15.316;2023-04-29T00:28:23;9.93;;;6.90;;
21798;SDS011;24973;47.178;15.316;2023-04-29T00:31:12;9.05;;;7.53;;
21798;SDS011;24973;47.178;15.316;2023-04-29T00:34:02;6.90;;;6.17;;
21798;SDS011;24973;47.178;15.316;2023-04-29T00:36:51;7.03;;;5.07;;
21798;SDS011;24973;47.178;15.316;2023-04-29T00:39:40;5.20;;;4.77;;
21798;SDS011;24973;47.178;15.316;2023-04-29T00:42:28;5.73;;;4.70;;
21798;SDS011;24973;47.178;15.316;2023-04-29T00:45:19;5.23;;;4.60;;
21798;SDS011;24973;47.178;15.316;2023-04-29T00:48:08;6.27;;;5.03;;
21798;SDS011;24973;47.178;15.316;2023-04-29T00:50:58;7.63;;;5.10;;
21798;SDS011;24973;47.178;15.316;2023-04-29T00:53:47;5.73;;;5.13;;
21798;SDS011;24973;47.178;15.316;2023-04-29T00:56:36;5.97;;;5.37;;
21798;SDS011;24973;47.178;15.316;2023-04-29T00:59:27;5.83;;;5.00;;
21798;SDS011;24973;47.178;15.316;2023-04-29T01:02:17;6.27;;;5.13;;
21798;SDS011;24973;47.178;15.316;2023-04-29T01:05:07;6.27;;;5.67;;
21798;SDS011;24973;47.178;15.316;2023-04-29T01:08:02;7.27;;;6.43;;
21798;SDS011;24973;47.178;15.316;2023-04-29T01:11:12;6.57;;;5.83;;
21798;SDS011;24973;47.178;15.316;2023-04-29T01:14:08;7.63;;;6.30;;
21798;SDS011;24973;47.178;15.316;2023-04-29T01:16:58;6.53;;;5.90;;
21798;SDS011;24973;47.178;15.316;2023-04-29T01:19:53;6.00;;;5.40;;
21798;SDS011;24973;47.178;15.316;2023-04-29T01:22:43;9.77;;;5.07;;
21798;SDS011;24973;47.178;15.316;2023-04-29T01:25:34;6.27;;;5.40;;
21798;SDS011;24973;47.178;15.316;2023-04-29T01:28:28;7.57;;;5.77;;
21798;SDS011;24973;47.178;15.316;2023-04-29T01:31:30;7.50;;;5.33;;
21798;SDS011;24973;47.178;15.316;2023-04-29T01:34:29;5.33;;;4.83;;
21798;SDS011;24973;47.178;15.316;2023-04-29T01:37:34;5.03;;;4.57;;
21798;SDS011;24973;47.178;15.316;2023-04-29T01:40:33;6.37;;;5.03;;
21798;SDS011;24973;47.178;15.316;2023-04-29T01:43:33;6.93;;;5.50;;
21798;SDS011;24973;47.178;15.316;2023-04-29T01:46:24;6.60;;;5.90;;
21798;SDS011;24973;47.178;15.316;2023-04-29T01:49:14;8.83;;;5.43;;
21798;SDS011;24973;47.178;15.316;2023-04-29T01:52:03;5.50;;;5.00;;
21798;SDS011;24973;47.178;15.316;2023-04-29T01:54:52;4.90;;;4.43;;
21798;SDS011;24973;47.178;15.316;2023-04-29T01:57:43;4.80;;;4.10;;
21798;SDS011;24973;47.178;15.316;2023-04-29T02:00:32;5.47;;;4.80;;
21798;SDS011;24973;47.178;15.316;2023-04-29T02:03:20;6.60;;;5.93;;
21798;SDS011;24973;47.178;15.316;2023-04-29T02:06:09;6.27;;;4.93;;
21798;SDS011;24973;47.178;15.316;2023-04-29T02:08:58;5.57;;;4.97;;
21798;SDS011;24973;47.178;15.316;2023-04-29T02:11:46;5.83;;;5.27;;
21798;SDS011;24973;47.178;15.316;2023-04-29T02:14:36;4.40;;;4.00;;
21798;SDS011;24973;47.178;15.316;2023-04-29T02:17:25;4.93;;;4.43;;
21798;SDS011;24973;47.178;15.316;2023-04-29T02:20:14;5.30;;;4.43;;
21798;SDS011;24973;47.178;15.316;2023-04-29T02:23:03;4.50;;;4.10;;
21798;SDS011;24973;47.178;15.316;2023-04-29T02:25:52;5.00;;;4.60;;
21798;SDS011;24973;47.178;15.316;2023-04-29T02:28:40;4.80;;;4.00;;
21798;SDS011;24973;47.178;15.316;2023-04-29T02:31:31;4.47;;;4.07;;
21798;SDS011;24973;47.178;15.316;2023-04-29T02:34:19;10.40;;;4.67;;
21798;SDS011;24973;47.178;15.316;2023-04-29T02:37:09;4.70;;;4.13;;
21798;SDS011;24973;47.178;15.316;2023-04-29T02:39:58;4.77;;;4.17;;
21798;SDS011;24973;47.178;15.316;2023-04-29T02:42:47;4.90;;;4.40;;
21798;SDS011;24973;47.178;15.316;2023-04-29T02:45:36;4.70;;;4.30;;
21798;SDS011;24973;47.178;15.316;2023-04-29T02:48:26;4.87;;;4.37;;
21798;SDS011;24973;47.178;15.316;2023-04-29T02:51:15;6.20;;;4.43;;
21798;SDS011;24973;47.178;15.316;2023-04-29T02:54:04;5.10;;;4.37;;
21798;SDS011;24973;47.178;15.316;2023-04-29T02:56:52;4.57;;;4.17;;
21798;SDS011;24973;47.178;15.316;2023-04-29T02:59:41;4.47;;;3.43;;
21798;SDS011;24973;47.178;15.316;2023-04-29T03:02:30;4.27;;;3.87;;
21798;SDS011;24973;47.178;15.316;2023-04-29T03:05:20;3.87;;;3.50;;
21798;SDS011;24973;47.178;15.316;2023-04-29T03:08:08;4.37;;;3.87;;
21798;SDS011;24973;47.178;15.316;2023-04-29T03:10:57;4.30;;;3.90;;
21798;SDS011;24973;47.178;15.316;2023-04-29T03:13:46;3.93;;;3.63;;
21798;SDS011;24973;47.178;15.316;2023-04-29T03:16:35;4.63;;;3.23;;
21798;SDS011;24973;47.178;15.316;2023-04-29T03:19:24;8.47;;;3.87;;
21798;SDS011;24973;47.178;15.316;2023-04-29T03:22:14;4.13;;;3.73;;
21798;SDS011;24973;47.178;15.316;2023-04-29T03:25:03;4.77;;;4.10;;
21798;SDS011;24973;47.178;15.316;2023-04-29T03:27:53;4.00;;;3.60;;
21798;SDS011;24973;47.178;15.316;2023-04-29T03:30:41;9.80;;;3.53;;
21798;SDS011;24973;47.178;15.316;2023-04-29T03:33:30;3.77;;;3.47;;
21798;SDS011;24973;47.178;15.316;2023-04-29T03:36:19;4.23;;;3.60;;
21798;SDS011;24973;47.178;15.316;2023-04-29T03:39:09;5.00;;;4.50;;
21798;SDS011;24973;47.178;15.316;2023-04-29T03:41:58;3.17;;;2.80;;
21798;SDS011;24973;47.178;15.316;2023-04-29T03:44:48;3.80;;;3.50;;
21798;SDS011;24973;47.178;15.316;2023-04-29T03:47:37;4.03;;;3.63;;
21798;SDS011;24973;47.178;15.316;2023-04-29T03:50:25;2.60;;;2.40;;
21798;SDS011;24973;47.178;15.316;2023-04-29T03:53:14;4.17;;;3.10;;
21798;SDS011;24973;47.178;15.316;2023-04-29T03:56:05;3.23;;;2.93;;
21798;SDS011;24973;47.178;15.316;2023-04-29T03:58:54;2.97;;;2.57;;
21798;SDS011;24973;47.178;15.316;2023-04-29T04:01:43;3.63;;;3.33;;
21798;SDS011;24973;47.178;15.316;2023-04-29T04:04:32;3.63;;;3.27;;
21798;SDS011;24973;47.178;15.316;2023-04-29T04:07:21;3.83;;;3.27;;
21798;SDS011;24973;47.178;15.316;2023-04-29T04:10:09;3.37;;;3.17;;
21798;SDS011;24973;47.178;15.316;2023-04-29T04:12:59;3.10;;;2.67;;
21798;SDS011;24973;47.178;15.316;2023-04-29T04:15:48;3.43;;;3.13;;
21798;SDS011;24973;47.178;15.316;2023-04-29T04:18:37;3.97;;;3.43;;
21798;SDS011;24973;47.178;15.316;2023-04-29T04:21:26;6.93;;;3.20;;
21798;SDS011;24973;47.178;15.316;2023-04-29T04:24:15;2.77;;;2.53;;
21798;SDS011;24973;47.178;15.316;2023-04-29T04:27:04;3.37;;;3.07;;
21798;SDS011;24973;47.178;15.316;2023-04-29T04:29:54;3.53;;;2.73;;
21798;SDS011;24973;47.178;15.316;2023-04-29T04:32:43;3.17;;;2.63;;
21798;SDS011;24973;47.178;15.316;2023-04-29T04:35:32;3.20;;;2.90;;
21798;SDS011;24973;47.178;15.316;2023-04-29T04:38:20;5.50;;;3.67;;
21798;SDS011;24973;47.178;15.316;2023-04-29T04:41:11;5.50;;;2.90;;
21798;SDS011;24973;47.178;15.316;2023-04-29T04:43:59;2.60;;;2.40;;
21798;SDS011;24973;47.178;15.316;2023-04-29T04:46:50;3.10;;;2.83;;
21798;SDS011;24973;47.178;15.316;2023-04-29T04:49:39;4.63;;;2.50;;
21798;SDS011;24973;47.178;15.316;2023-04-29T04:52:27;3.70;;;3.23;;
21798;SDS011;24973;47.178;15.316;2023-04-29T04:55:17;3.13;;;2.70;;
21798;SDS011;24973;47.178;15.316;2023-04-29T04:58:05;3.47;;;3.10;;
21798;SDS011;24973;47.178;15.316;2023-04-29T05:00:54;2.57;;;2.37;;
21798;SDS011;24973;47.178;15.316;2023-04-29T05:03:44;3.07;;;2.77;;
21798;SDS011;24973;47.178;15.316;2023-04-29T05:06:33;2.57;;;2.37;;
21798;SDS011;24973;47.178;15.316;2023-04-29T05:09:21;2.57;;;2.37;;
21798;SDS011;24973;47.178;15.316;2023-04-29T05:12:10;3.40;;;2.83;;
21798;SDS011;24973;47.178;15.316;2023-04-29T05:14:59;3.20;;;3.00;;
21798;SDS011;24973;47.178;15.316;2023-04-29T05:17:49;3.47;;;2.43;;
21798;SDS011;24973;47.178;15.316;2023-04-29T05:20:39;2.43;;;2.03;;
21798;SDS011;24973;47.178;15.316;2023-04-29T05:23:28;1.70;;;1.60;;
21798;SDS011;24973;47.178;15.316;2023-04-29T05:26:16;2.10;;;1.90;;
21798;SDS011;24973;47.178;15.316;2023-04-29T05:29:05;1.60;;;1.50;;
21798;SDS011;24973;47.178;15.316;2023-04-29T05:31:54;1.57;;;1.47;;
21798;SDS011;24973;47.178;15.316;2023-04-29T05:34:43;2.40;;;1.73;;
21798;SDS011;24973;47.178;15.316;2023-04-29T05:37:33;1.90;;;1.80;;
21798;SDS011;24973;47.178;15.316;2023-04-29T05:40:22;2.10;;;1.83;;
21798;SDS011;24973;47.178;15.316;2023-04-29T05:43:10;2.30;;;2.20;;
21798;SDS011;24973;47.178;15.316;2023-04-29T05:46:00;3.73;;;3.07;;
21798;SDS011;24973;47.178;15.316;2023-04-29T05:48:49;6.67;;;5.00;;
21798;SDS011;24973;47.178;15.316;2023-04-29T05:51:37;9.67;;;3.20;;
21798;SDS011;24973;47.178;15.316;2023-04-29T05:54:27;5.17;;;3.37;;
21798;SDS011;24973;47.178;15.316;2023-04-29T05:57:16;6.53;;;4.33;;
21798;SDS011;24973;47.178;15.316;2023-04-29T06:00:05;5.13;;;4.47;;
21798;SDS011;24973;47.178;15.316;2023-04-29T06:02:55;5.17;;;4.20;;
21798;SDS011;24973;47.178;15.316;2023-04-29T06:05:44;7.90;;;5.40;;
21798;SDS011;24973;47.178;15.316;2023-04-29T06:08:33;3.90;;;3.60;;
21798;SDS011;24973;47.178;15.316;2023-04-29T06:11:23;5.80;;;4.37;;
21798;SDS011;24973;47.178;15.316;2023-04-29T06:14:12;5.93;;;3.77;;
21798;SDS011;24973;47.178;15.316;2023-04-29T06:17:01;4.90;;;4.40;;
21798;SDS011;24973;47.178;15.316;2023-04-29T06:19:50;4.47;;;4.07;;
21798;SDS011;24973;47.178;15.316;2023-04-29T06:22:39;3.57;;;3.27;;
21798;SDS011;24973;47.178;15.316;2023-04-29T06:25:27;7.03;;;4.00;;
21798;SDS011;24973;47.178;15.316;2023-04-29T06:28:17;5.63;;;4.30;;
21798;SDS011;24973;47.178;15.316;2023-04-29T06:31:06;7.83;;;4.63;;
21798;SDS011;24973;47.178;15.316;2023-04-29T06:33:55;7.73;;;5.20;;
21798;SDS011;24973;47.178;15.316;2023-04-29T06:36:44;7.47;;;3.70;;
21798;SDS011;24973;47.178;15.316;2023-04-29T06:39:32;4.30;;;3.87;;
21798;SDS011;24973;47.178;15.316;2023-04-29T06:42:21;6.47;;;4.73;;
21798;SDS011;24973;47.178;15.316;2023-04-29T06:45:11;5.17;;;4.77;;
21798;SDS011;24973;47.178;15.316;2023-04-29T06:48:00;7.27;;;4.40;;
21798;SDS011;24973;47.178;15.316;2023-04-29T06:50:49;5.57;;;4.13;;
21798;SDS011;24973;47.178;15.316;2023-04-29T06:53:38;7.07;;;4.83;;
21798;SDS011;24973;47.178;15.316;2023-04-29T06:56:26;5.27;;;3.70;;
21798;SDS011;24973;47.178;15.316;2023-04-29T06:59:15;3.80;;;3.33;;
21798;SDS011;24973;47.178;15.316;2023-04-29T07:02:05;3.63;;;3.27;;
21798;SDS011;24973;47.178;15.316;2023-04-29T07:04:55;5.47;;;3.60;;
21798;SDS011;24973;47.178;15.316;2023-04-29T07:07:45;3.67;;;2.87;;
21798;SDS011;24973;47.178;15.316;2023-04-29T07:10:34;6.13;;;3.27;;
21798;SDS011;24973;47.178;15.316;2023-04-29T07:13:23;4.07;;;3.67;;
21798;SDS011;24973;47.178;15.316;2023-04-29T07:16:15;4.00;;;2.57;;
21798;SDS011;24973;47.178;15.316;2023-04-29T07:19:07;3.93;;;3.53;;
21798;SDS011;24973;47.178;15.316;2023-04-29T07:21:56;4.77;;;3.20;;
21798;SDS011;24973;47.178;15.316;2023-04-29T07:24:45;6.67;;;3.60;;
21798;SDS011;24973;47.178;15.316;2023-04-29T07:27:34;4.83;;;3.10;;
21798;SDS011;24973;47.178;15.316;2023-04-29T07:30:23;4.37;;;2.60;;
21798;SDS011;24973;47.178;15.316;2023-04-29T07:33:12;3.57;;;2.40;;
21798;SDS011;24973;47.178;15.316;2023-04-29T07:36:04;3.63;;;2.90;;
21798;SDS011;24973;47.178;15.316;2023-04-29T07:38:54;3.57;;;2.27;;
21798;SDS011;24973;47.178;15.316;2023-04-29T07:41:43;5.43;;;2.57;;
21798;SDS011;24973;47.178;15.316;2023-04-29T07:44:32;2.77;;;2.40;;
21798;SDS011;24973;47.178;15.316;2023-04-29T07:47:21;2.63;;;2.43;;
21798;SDS011;24973;47.178;15.316;2023-04-29T07:50:11;3.63;;;2.13;;
21798;SDS011;24973;47.178;15.316;2023-04-29T07:53:01;3.13;;;2.90;;
21798;SDS011;24973;47.178;15.316;2023-04-29T07:55:50;2.27;;;2.07;;
21798;SDS011;24973;47.178;15.316;2023-04-29T07:58:39;2.37;;;2.07;;
21798;SDS011;24973;47.178;15.316;2023-04-29T08:01:28;4.57;;;2.00;;
21798;SDS011;24973;47.178;15.316;2023-04-29T08:04:18;2.20;;;1.70;;
21798;SDS011;24973;47.178;15.316;2023-04-29T08:07:07;1.73;;;1.63;;
21798;SDS011;24973;47.178;15.316;2023-04-29T08:09:57;2.27;;;1.87;;
21798;SDS011;24973;47.178;15.316;2023-04-29T08:12:47;2.70;;;1.53;;
21798;SDS011;24973;47.178;15.316;2023-04-29T08:15:36;3.37;;;2.83;;
21798;SDS011;24973;47.178;15.316;2023-04-29T08:18:25;4.93;;;1.97;;
21798;SDS011;24973;47.178;15.316;2023-04-29T08:21:14;2.10;;;1.83;;
21798;SDS011;24973;47.178;15.316;2023-04-29T08:24:03;2.47;;;1.50;;
21798;SDS011;24973;47.178;15.316;2023-04-29T08:26:54;1.17;;;1.00;;
21798;SDS011;24973;47.178;15.316;2023-04-29T08:29:44;1.53;;;1.10;;
21798;SDS011;24973;47.178;15.316;2023-04-29T08:32:33;7.67;;;2.60;;
21798;SDS011;24973;47.178;15.316;2023-04-29T08:35:22;3.30;;;2.23;;
21798;SDS011;24973;47.178;15.316;2023-04-29T08:38:11;2.13;;;1.93;;
21798;SDS011;24973;47.178;15.316;2023-04-29T08:41:00;4.40;;;2.13;;
21798;SDS011;24973;47.178;15.316;2023-04-29T08:43:50;2.10;;;1.80;;
21798;SDS011;24973;47.178;15.316;2023-04-29T08:46:39;2.43;;;2.03;;
21798;SDS011;24973;47.178;15.316;2023-04-29T08:49:29;1.43;;;1.33;;
21798;SDS011;24973;47.178;15.316;2023-04-29T08:52:20;1.53;;;1.17;;
21798;SDS011;24973;47.178;15.316;2023-04-29T08:55:09;1.60;;;1.23;;
21798;SDS011;24973;47.178;15.316;2023-04-29T08:57:58;1.60;;;1.30;;
21798;SDS011;24973;47.178;15.316;2023-04-29T09:00:49;2.00;;;1.60;;
21798;SDS011;24973;47.178;15.316;2023-04-29T09:03:39;1.00;;;0.90;;
21798;SDS011;24973;47.178;15.316;2023-04-29T09:06:31;2.40;;;1.27;;
21798;SDS011;24973;47.178;15.316;2023-04-29T09:09:20;2.80;;;1.00;;
21798;SDS011;24973;47.178;15.316;2023-04-29T09:12:10;3.87;;;1.10;;
21798;SDS011;24973;47.178;15.316;2023-04-29T09:14:59;1.50;;;1.07;;
21798;SDS011;24973;47.178;15.316;2023-04-29T09:17:50;2.13;;;1.50;;
21798;SDS011;24973;47.178;15.316;2023-04-29T09:20:39;1.50;;;1.20;;
21798;SDS011;24973;47.178;15.316;2023-04-29T09:23:35;2.80;;;1.17;;
21798;SDS011;24973;47.178;15.316;2023-04-29T09:26:24;0.70;;;0.67;;
21798;SDS011;24973;47.178;15.316;2023-04-29T09:29:13;1.53;;;1.43;;
21798;SDS011;24973;47.178;15.316;2023-04-29T09:32:17;1.43;;;1.17;;
21798;SDS011;24973;47.178;15.316;2023-04-29T09:38:15;1.27;;;0.90;;
21798;SDS011;24973;47.178;15.316;2023-04-29T09:41:07;21.37;;;5.80;;
21798;SDS011;24973;47.178;15.316;2023-04-29T09:44:04;10.53;;;2.93;;
21798;SDS011;24973;47.178;15.316;2023-04-29T09:46:53;1.30;;;1.20;;
21798;SDS011;24973;47.178;15.316;2023-04-29T09:49:44;0.97;;;0.90;;
21798;SDS011;24973;47.178;15.316;2023-04-29T09:52:40;1.23;;;0.90;;
21798;SDS011;24973;47.178;15.316;2023-04-29T09:55:29;0.90;;;0.87;;
21798;SDS011;24973;47.178;15.316;2023-04-29T09:58:24;1.00;;;0.80;;
21798;SDS011;24973;47.178;15.316;2023-04-29T10:01:16;2.00;;;1.03;;
21798;SDS011;24973;47.178;15.316;2023-04-29T10:04:07;1.33;;;1.07;;
21798;SDS011;24973;47.178;15.316;2023-04-29T10:06:58;0.67;;;0.63;;
21798;SDS011;24973;47.178;15.316;2023-04-29T10:09:49;8.43;;;1.80;;
21798;SDS011;24973;47.178;15.316;2023-04-29T10:12:39;1.47;;;0.90;;
21798;SDS011;24973;47.178;15.316;2023-04-29T10:15:28;0.90;;;0.90;;
21798;SDS011;24973;47.178;15.316;2023-04-29T10:18:25;1.57;;;0.93;;
21798;SDS011;24973;47.178;15.316;2023-04-29T10:21:23;2.47;;;1.37;;
21798;SDS011;24973;47.178;15.316;2023-04-29T10:24:16;1.20;;;1.03;;
21798;SDS011;24973;47.178;15.316;2023-04-29T10:27:07;2.70;;;2.50;;
21798;SDS011;24973;47.178;15.316;2023-04-29T10:29:59;1.27;;;1.07;;
21798;SDS011;24973;47.178;15.316;2023-04-29T10:32:50;1.17;;;0.90;;
21798;SDS011;24973;47.178;15.316;2023-04-29T10:35:39;1.10;;;0.83;;
21798;SDS011;24973;47.178;15.316;2023-04-29T10:38:32;1.20;;;1.10;;
21798;SDS011;24973;47.178;15.316;2023-04-29T10:41:26;2.87;;;0.97;;
21798;SDS011;24973;47.178;15.316;2023-04-29T10:44:20;1.80;;;1.10;;
21798;SDS011;24973;47.178;15.316;2023-04-29T10:50:16;2.20;;;0.70;;
21798;SDS011;24973;47.178;15.316;2023-04-29T10:53:05;1.73;;;0.90;;
21798;SDS011;24973;47.178;15.316;2023-04-29T10:55:55;0.60;;;0.47;;
21798;SDS011;24973;47.178;15.316;2023-04-29T10:58:46;0.73;;;0.73;;
21798;SDS011;24973;47.178;15.316;2023-04-29T11:01:49;0.70;;;0.53;;
21798;SDS011;24973;47.178;15.316;2023-04-29T11:08:07;0.80;;;0.60;;
21798;SDS011;24973;47.178;15.316;2023-04-29T11:10:59;0.57;;;0.57;;
21798;SDS011;24973;47.178;15.316;2023-04-29T11:13:48;2.00;;;0.60;;
21798;SDS011;24973;47.178;15.316;2023-04-29T11:16:37;1.97;;;0.80;;
21798;SDS011;24973;47.178;15.316;2023-04-29T11:19:35;3.87;;;0.60;;
21798;SDS011;24973;47.178;15.316;2023-04-29T11:22:28;1.43;;;0.80;;
21798;SDS011;24973;47.178;15.316;2023-04-29T11:25:19;0.60;;;0.60;;
21798;SDS011;24973;47.178;15.316;2023-04-29T11:28:09;0.60;;;0.60;;
21798;SDS011;24973;47.178;15.316;2023-04-29T11:30:58;0.40;;;0.40;;
21798;SDS011;24973;47.178;15.316;2023-04-29T11:33:49;0.40;;;0.40;;
21798;SDS011;24973;47.178;15.316;2023-04-29T11:36:39;0.30;;;0.30;;
21798;SDS011;24973;47.178;15.316;2023-04-29T11:39:28;1.43;;;0.60;;
21798;SDS011;24973;47.178;15.316;2023-04-29T11:42:20;0.73;;;0.50;;
21798;SDS011;24973;47.178;15.316;2023-04-29T11:45:09;0.60;;;0.60;;
21798;SDS011;24973;47.178;15.316;2023-04-29T11:47:59;1.90;;;0.60;;
21798;SDS011;24973;47.178;15.316;2023-04-29T11:50:48;0.40;;;0.40;;
21798;SDS011;24973;47.178;15.316;2023-04-29T11:53:40;1.07;;;0.60;;
21798;SDS011;24973;47.178;15.316;2023-04-29T11:56:29;0.60;;;0.50;;
21798;SDS011;24973;47.178;15.316;2023-04-29T11:59:18;2.27;;;1.30;;
21798;SDS011;24973;47.178;15.316;2023-04-29T12:02:07;3.47;;;2.57;;
21798;SDS011;24973;47.178;15.316;2023-04-29T12:04:59;3.50;;;1.10;;
21798;SDS011;24973;47.178;15.316;2023-04-29T12:07:54;5.60;;;0.70;;
21798;SDS011;24973;47.178;15.316;2023-04-29T12:10:44;0.43;;;0.33;;
21798;SDS011;24973;47.178;15.316;2023-04-29T12:13:35;5.00;;;2.77;;
21798;SDS011;24973;47.178;15.316;2023-04-29T12:16:24;0.57;;;0.40;;
21798;SDS011;24973;47.178;15.316;2023-04-29T12:19:14;6.00;;;2.43;;
21798;SDS011;24973;47.178;15.316;2023-04-29T12:22:04;13.70;;;7.20;;
21798;SDS011;24973;47.178;15.316;2023-04-29T12:24:53;4.37;;;1.83;;
21798;SDS011;24973;47.178;15.316;2023-04-29T12:27:46;1.67;;;1.27;;
21798;SDS011;24973;47.178;15.316;2023-04-29T12:30:36;1.73;;;1.03;;
21798;SDS011;24973;47.178;15.316;2023-04-29T12:33:26;1.20;;;0.70;;
21798;SDS011;24973;47.178;15.316;2023-04-29T12:36:15;1.90;;;1.33;;
21798;SDS011;24973;47.178;15.316;2023-04-29T12:39:05;1.33;;;0.47;;
21798;SDS011;24973;47.178;15.316;2023-04-29T12:41:56;1.00;;;0.50;;
21798;SDS011;24973;47.178;15.316;2023-04-29T12:44:47;0.50;;;0.50;;
21798;SDS011;24973;47.178;15.316;2023-04-29T12:47:36;1.83;;;1.33;;
21798;SDS011;24973;47.178;15.316;2023-04-29T12:50:30;7.17;;;3.70;;
21798;SDS011;24973;47.178;15.316;2023-04-29T12:53:19;2.90;;;1.23;;
21798;SDS011;24973;47.178;15.316;2023-04-29T12:56:12;1.13;;;0.70;;
21798;SDS011;24973;47.178;15.316;2023-04-29T12:59:04;1.87;;;0.50;;
21798;SDS011;24973;47.178;15.316;2023-04-29T13:01:55;1.67;;;0.50;;
21798;SDS011;24973;47.178;15.316;2023-04-29T13:04:44;1.80;;;0.50;;
21798;SDS011;24973;47.178;15.316;2023-04-29T13:07:33;0.30;;;0.30;;
21798;SDS011;24973;47.178;15.316;2023-04-29T13:10:22;0.33;;;0.30;;
21798;SDS011;24973;47.178;15.316;2023-04-29T13:13:11;0.97;;;0.50;;
21798;SDS011;24973;47.178;15.316;2023-04-29T13:16:00;1.07;;;0.40;;
21798;SDS011;24973;47.178;15.316;2023-04-29T13:18:51;0.50;;;0.40;;
21798;SDS011;24973;47.178;15.316;2023-04-29T13:21:50;1.43;;;0.43;;
21798;SDS011;24973;47.178;15.316;2023-04-29T13:24:39;10.33;;;4.97;;
21798;SDS011;24973;47.178;15.316;2023-04-29T13:27:28;2.60;;;1.90;;
21798;SDS011;24973;47.178;15.316;2023-04-29T13:30:17;1.60;;;1.10;;
21798;SDS011;24973;47.178;15.316;2023-04-29T13:33:06;1.93;;;1.67;;
21798;SDS011;24973;47.178;15.316;2023-04-29T13:35:59;1.20;;;1.00;;
21798;SDS011;24973;47.178;15.316;2023-04-29T13:38:48;2.87;;;0.67;;
21798;SDS011;24973;47.178;15.316;2023-04-29T13:41:40;1.07;;;0.57;;
21798;SDS011;24973;47.178;15.316;2023-04-29T13:44:31;4.00;;;1.83;;
21798;SDS011;24973;47.178;15.316;2023-04-29T13:47:31;3.80;;;1.83;;
21798;SDS011;24973;47.178;15.316;2023-04-29T13:50:21;4.20;;;2.60;;
21798;SDS011;24973;47.178;15.316;2023-04-29T13:53:31;3.93;;;1.60;;
21798;SDS011;24973;47.178;15.316;2023-04-29T13:56:28;2.37;;;1.43;;
21798;SDS011;24973;47.178;15.316;2023-04-29T13:59:36;0.30;;;0.30;;
21798;SDS011;24973;47.178;15.316;2023-04-29T14:02:31;0.50;;;0.40;;
21798;SDS011;24973;47.178;15.316;2023-04-29T14:05:20;2.43;;;1.57;;
21798;SDS011;24973;47.178;15.316;2023-04-29T14:08:09;0.57;;;0.50;;
21798;SDS011;24973;47.178;15.316;2023-04-29T14:11:00;5.20;;;3.13;;
21798;SDS011;24973;47.178;15.316;2023-04-29T14:13:49;1.30;;;0.53;;
21798;SDS011;24973;47.178;15.316;2023-04-29T14:16:38;1.27;;;0.90;;
21798;SDS011;24973;47.178;15.316;2023-04-29T14:19:27;3.20;;;1.10;;
21798;SDS011;24973;47.178;15.316;2023-04-29T14:22:16;0.40;;;0.40;;
21798;SDS011;24973;47.178;15.316;2023-04-29T14:25:05;1.43;;;0.97;;
21798;SDS011;24973;47.178;15.316;2023-04-29T14:27:56;2.30;;;0.50;;
21798;SDS011;24973;47.178;15.316;2023-04-29T14:30:45;1.60;;;0.67;;
21798;SDS011;24973;47.178;15.316;2023-04-29T14:33:34;3.80;;;1.47;;
21798;SDS011;24973;47.178;15.316;2023-04-29T14:36:23;0.43;;;0.37;;
21798;SDS011;24973;47.178;15.316;2023-04-29T14:39:12;1.37;;;0.60;;
21798;SDS011;24973;47.178;15.316;2023-04-29T14:42:00;0.40;;;0.40;;
21798;SDS011;24973;47.178;15.316;2023-04-29T14:44:51;0.53;;;0.50;;
21798;SDS011;24973;47.178;15.316;2023-04-29T14:47:40;0.40;;;0.33;;
21798;SDS011;24973;47.178;15.316;2023-04-29T14:50:29;1.33;;;0.50;;
21798;SDS011;24973;47.178;15.316;2023-04-29T14:53:18;0.77;;;0.17;;
21798;SDS011;24973;47.178;15.316;2023-04-29T14:56:07;0.20;;;0.20;;
21798;SDS011;24973;47.178;15.316;2023-04-29T14:58:56;0.40;;;0.40;;
21798;SDS011;24973;47.178;15.316;2023-04-29T15:01:46;2.27;;;0.33;;
21798;SDS011;24973;47.178;15.316;2023-04-29T15:04:35;0.30;;;0.30;;
21798;SDS011;24973;47.178;15.316;2023-04-29T15:07:27;0.40;;;0.33;;
21798;SDS011;24973;47.178;15.316;2023-04-29T15:10:17;0.85;;;0.30;;
21798;SDS011;24973;47.178;15.316;2023-04-29T15:13:06;0.20;;;0.13;;
21798;SDS011;24973;47.178;15.316;2023-04-29T15:15:54;0.30;;;0.30;;
21798;SDS011;24973;47.178;15.316;2023-04-29T15:18:45;0.40;;;0.20;;
21798;SDS011;24973;47.178;15.316;2023-04-29T15:21:34;1.33;;;0.40;;
21798;SDS011;24973;47.178;15.316;2023-04-29T15:24:22;0.70;;;0.30;;
21798;SDS011;24973;47.178;15.316;2023-04-29T15:27:11;4.85;;;1.10;;
21798;SDS011;24973;47.178;15.316;2023-04-29T15:30:01;0.30;;;0.30;;
21798;SDS011;24973;47.178;15.316;2023-04-29T15:32:50;0.30;;;0.30;;
21798;SDS011;24973;47.178;15.316;2023-04-29T15:35:40;2.53;;;0.40;;
21798;SDS011;24973;47.178;15.316;2023-04-29T15:38:29;0.40;;;0.30;;
21798;SDS011;24973;47.178;15.316;2023-04-29T15:41:18;0.40;;;0.23;;
21798;SDS011;24973;47.178;15.316;2023-04-29T15:44:07;0.30;;;0.20;;
21798;SDS011;24973;47.178;15.316;2023-04-29T15:46:56;0.67;;;0.47;;
21798;SDS011;24973;47.178;15.316;2023-04-29T15:49:44;2.30;;;0.30;;
21798;SDS011;24973;47.178;15.316;2023-04-29T15:52:34;0.37;;;0.30;;
21798;SDS011;24973;47.178;15.316;2023-04-29T15:55:23;0.37;;;0.37;;
21798;SDS011;24973;47.178;15.316;2023-04-29T15:58:12;0.67;;;0.53;;
21798;SDS011;24973;47.178;15.316;2023-04-29T16:01:00;0.93;;;0.50;;
21798;SDS011;24973;47.178;15.316;2023-04-29T16:03:50;0.43;;;0.30;;
21798;SDS011;24973;47.178;15.316;2023-04-29T16:06:39;0.33;;;0.33;;
21798;SDS011;24973;47.178;15.316;2023-04-29T16:09:29;0.30;;;0.30;;
21798;SDS011;24973;47.178;15.316;2023-04-29T16:12:18;0.40;;;0.40;;
21798;SDS011;24973;47.178;15.316;2023-04-29T16:15:07;0.60;;;0.57;;
21798;SDS011;24973;47.178;15.316;2023-04-29T16:17:57;0.70;;;0.50;;
21798;SDS011;24973;47.178;15.316;2023-04-29T16:20:46;0.90;;;0.50;;
21798;SDS011;24973;47.178;15.316;2023-04-29T16:23:35;0.70;;;0.57;;
21798;SDS011;24973;47.178;15.316;2023-04-29T16:26:25;1.43;;;0.50;;
21798;SDS011;24973;47.178;15.316;2023-04-29T16:29:14;0.77;;;0.67;;
21798;SDS011;24973;47.178;15.316;2023-04-29T16:32:04;0.33;;;0.33;;
21798;SDS011;24973;47.178;15.316;2023-04-29T16:34:52;0.60;;;0.47;;
21798;SDS011;24973;47.178;15.316;2023-04-29T16:37:41;0.73;;;0.40;;
21798;SDS011;24973;47.178;15.316;2023-04-29T16:40:30;0.57;;;0.57;;
21798;SDS011;24973;47.178;15.316;2023-04-29T16:43:20;0.33;;;0.33;;
21798;SDS011;24973;47.178;15.316;2023-04-29T16:46:09;0.60;;;0.47;;
21798;SDS011;24973;47.178;15.316;2023-04-29T16:48:57;0.87;;;0.50;;
21798;SDS011;24973;47.178;15.316;2023-04-29T16:51:46;3.90;;;0.50;;
21798;SDS011;24973;47.178;15.316;2023-04-29T16:54:36;1.33;;;0.63;;
21798;SDS011;24973;47.178;15.316;2023-04-29T16:57:25;0.70;;;0.70;;